sensor_id;sensor_type;location;lat;lon;timestamp;P1;durP1;ratioP1;P2;durP2;ratioP2
8572;SDS011;4324;42.012;24.872;2023-12-14T00:01:42;49.27;;;36.13;;
8572;SDS011;4324;42.012;24.872;2023-12-14T00:04:11;47.30;;;35.43;;
8572;SDS011;4324;42.012;24.872;2023-12-14T00:06:38;48.47;;;35.90;;
8572;SDS011;4324;42.012;24.872;2023-12-14T00:09:06;47.63;;;34.77;;
8572;SDS011;4324;42.012;24.872;2023-12-14T00:11:38;47.93;;;35.20;;
8572;SDS011;4324;42.012;24.872;2023-12-14T00:14:06;46.90;;;34.80;;
8572;SDS011;4324;42.012;24.872;2023-12-14T00:16:33;50.83;;;36.13;;
8572;SDS011;4324;42.012;24.872;2023-12-14T00:19:00;47.97;;;34.33;;
8572;SDS011;4324;42.012;24.872;2023-12-14T00:21:29;48.10;;;33.47;;
8572;SDS011;4324;42.012;24.872;2023-12-14T00:24:13;48.27;;;33.90;;
8572;SDS011;4324;42.012;24.872;2023-12-14T00:26:41;52.47;;;33.63;;
8572;SDS011;4324;42.012;24.872;2023-12-14T00:29:08;45.57;;;31.47;;
8572;SDS011;4324;42.012;24.872;2023-12-14T00:31:35;42.53;;;29.17;;
8572;SDS011;4324;42.012;24.872;2023-12-14T00:34:31;39.80;;;29.57;;
8572;SDS011;4324;42.012;24.872;2023-12-14T00:36:58;39.13;;;30.10;;
8572;SDS011;4324;42.012;24.872;2023-12-14T00:39:25;42.40;;;31.07;;
8572;SDS011;4324;42.012;24.872;2023-12-14T00:41:54;37.53;;;28.43;;
8572;SDS011;4324;42.012;24.872;2023-12-14T00:44:21;38.03;;;28.67;;
8572;SDS011;4324;42.012;24.872;2023-12-14T00:46:48;37.63;;;28.60;;
8572;SDS011;4324;42.012;24.872;2023-12-14T00:49:15;38.83;;;27.20;;
8572;SDS011;4324;42.012;24.872;2023-12-14T00:51:44;33.20;;;25.87;;
8572;SDS011;4324;42.012;24.872;2023-12-14T00:54:11;33.27;;;25.03;;
8572;SDS011;4324;42.012;24.872;2023-12-14T00:56:38;30.10;;;22.37;;
8572;SDS011;4324;42.012;24.872;2023-12-14T00:59:07;23.13;;;18.07;;
8572;SDS011;4324;42.012;24.872;2023-12-14T01:01:34;21.27;;;16.43;;
8572;SDS011;4324;42.012;24.872;2023-12-14T01:04:01;22.70;;;14.73;;
8572;SDS011;4324;42.012;24.872;2023-12-14T01:06:30;26.83;;;17.10;;
8572;SDS011;4324;42.012;24.872;2023-12-14T01:08:56;17.93;;;13.47;;
8572;SDS011;4324;42.012;24.872;2023-12-14T01:11:23;17.40;;;13.37;;
8572;SDS011;4324;42.012;24.872;2023-12-14T01:13:50;21.13;;;14.30;;
8572;SDS011;4324;42.012;24.872;2023-12-14T01:16:18;18.27;;;14.60;;
8572;SDS011;4324;42.012;24.872;2023-12-14T01:18:45;22.40;;;16.17;;
8572;SDS011;4324;42.012;24.872;2023-12-14T01:21:12;19.97;;;14.23;;
8572;SDS011;4324;42.012;24.872;2023-12-14T01:23:39;18.37;;;15.00;;
8572;SDS011;4324;42.012;24.872;2023-12-14T01:26:06;19.20;;;14.07;;
8572;SDS011;4324;42.012;24.872;2023-12-14T01:28:33;18.07;;;14.07;;
8572;SDS011;4324;42.012;24.872;2023-12-14T01:31:00;19.27;;;15.03;;
8572;SDS011;4324;42.012;24.872;2023-12-14T01:33:29;18.10;;;14.30;;
8572;SDS011;4324;42.012;24.872;2023-12-14T01:35:56;20.87;;;15.17;;
8572;SDS011;4324;42.012;24.872;2023-12-14T01:38:23;20.80;;;15.20;;
8572;SDS011;4324;42.012;24.872;2023-12-14T01:40:50;21.67;;;16.03;;
8572;SDS011;4324;42.012;24.872;2023-12-14T01:43:17;21.53;;;16.93;;
8572;SDS011;4324;42.012;24.872;2023-12-14T01:45:44;23.43;;;17.50;;
8572;SDS011;4324;42.012;24.872;2023-12-14T01:48:11;22.93;;;16.33;;
8572;SDS011;4324;42.012;24.872;2023-12-14T01:50:40;24.73;;;17.03;;
8572;SDS011;4324;42.012;24.872;2023-12-14T01:53:07;16.07;;;12.63;;
8572;SDS011;4324;42.012;24.872;2023-12-14T01:55:34;17.57;;;12.97;;
8572;SDS011;4324;42.012;24.872;2023-12-14T01:58:01;21.43;;;13.13;;
8572;SDS011;4324;42.012;24.872;2023-12-14T02:00:29;20.00;;;14.17;;
8572;SDS011;4324;42.012;24.872;2023-12-14T02:03:02;21.47;;;16.33;;
8572;SDS011;4324;42.012;24.872;2023-12-14T02:05:30;22.10;;;17.37;;
8572;SDS011;4324;42.012;24.872;2023-12-14T02:07:58;23.73;;;16.97;;
8572;SDS011;4324;42.012;24.872;2023-12-14T02:10:25;22.93;;;16.67;;
8572;SDS011;4324;42.012;24.872;2023-12-14T02:12:52;22.83;;;16.80;;
8572;SDS011;4324;42.012;24.872;2023-12-14T02:15:20;25.17;;;16.33;;
8572;SDS011;4324;42.012;24.872;2023-12-14T02:17:47;24.53;;;17.33;;
8572;SDS011;4324;42.012;24.872;2023-12-14T02:20:14;27.20;;;19.53;;
8572;SDS011;4324;42.012;24.872;2023-12-14T02:22:52;30.53;;;22.63;;
8572;SDS011;4324;42.012;24.872;2023-12-14T02:25:20;33.40;;;24.87;;
8572;SDS011;4324;42.012;24.872;2023-12-14T02:27:50;37.40;;;23.57;;
8572;SDS011;4324;42.012;24.872;2023-12-14T02:30:22;35.63;;;22.77;;
8572;SDS011;4324;42.012;24.872;2023-12-14T02:32:54;31.53;;;24.23;;
8572;SDS011;4324;42.012;24.872;2023-12-14T02:35:21;33.27;;;24.47;;
8572;SDS011;4324;42.012;24.872;2023-12-14T02:37:49;34.07;;;24.37;;
8572;SDS011;4324;42.012;24.872;2023-12-14T02:40:17;30.63;;;22.30;;
8572;SDS011;4324;42.012;24.872;2023-12-14T02:42:44;30.73;;;22.73;;
8572;SDS011;4324;42.012;24.872;2023-12-14T02:45:11;30.63;;;22.60;;
8572;SDS011;4324;42.012;24.872;2023-12-14T02:47:38;34.10;;;24.60;;
8572;SDS011;4324;42.012;24.872;2023-12-14T02:50:06;33.63;;;24.23;;
8572;SDS011;4324;42.012;24.872;2023-12-14T02:52:33;38.40;;;23.70;;
8572;SDS011;4324;42.012;24.872;2023-12-14T02:55:01;30.53;;;22.90;;
8572;SDS011;4324;42.012;24.872;2023-12-14T02:57:30;29.43;;;21.57;;
8572;SDS011;4324;42.012;24.872;2023-12-14T02:59:57;36.63;;;23.30;;
8572;SDS011;4324;42.012;24.872;2023-12-14T03:02:24;31.43;;;22.17;;
8572;SDS011;4324;42.012;24.872;2023-12-14T03:04:51;29.10;;;21.73;;
8572;SDS011;4324;42.012;24.872;2023-12-14T03:07:18;32.50;;;22.70;;
8572;SDS011;4324;42.012;24.872;2023-12-14T03:09:45;34.70;;;22.50;;
8572;SDS011;4324;42.012;24.872;2023-12-14T03:12:12;35.73;;;23.30;;
8572;SDS011;4324;42.012;24.872;2023-12-14T03:14:40;33.33;;;22.97;;
8572;SDS011;4324;42.012;24.872;2023-12-14T03:17:08;30.73;;;21.50;;
8572;SDS011;4324;42.012;24.872;2023-12-14T03:19:38;28.23;;;22.07;;
8572;SDS011;4324;42.012;24.872;2023-12-14T03:22:06;31.23;;;22.10;;
8572;SDS011;4324;42.012;24.872;2023-12-14T03:24:33;35.27;;;22.03;;
8572;SDS011;4324;42.012;24.872;2023-12-14T03:27:01;35.10;;;23.50;;
8572;SDS011;4324;42.012;24.872;2023-12-14T03:29:28;33.70;;;23.10;;
8572;SDS011;4324;42.012;24.872;2023-12-14T03:31:57;33.47;;;22.93;;
8572;SDS011;4324;42.012;24.872;2023-12-14T03:34:24;29.17;;;20.40;;
8572;SDS011;4324;42.012;24.872;2023-12-14T03:36:51;29.23;;;20.70;;
8572;SDS011;4324;42.012;24.872;2023-12-14T03:39:18;31.17;;;19.80;;
8572;SDS011;4324;42.012;24.872;2023-12-14T03:41:46;21.10;;;14.97;;
8572;SDS011;4324;42.012;24.872;2023-12-14T03:44:13;16.80;;;12.23;;
8572;SDS011;4324;42.012;24.872;2023-12-14T03:46:40;14.97;;;10.97;;
8572;SDS011;4324;42.012;24.872;2023-12-14T03:49:08;10.47;;;8.87;;
8572;SDS011;4324;42.012;24.872;2023-12-14T03:51:35;12.77;;;9.00;;
8572;SDS011;4324;42.012;24.872;2023-12-14T03:54:03;8.77;;;7.07;;
8572;SDS011;4324;42.012;24.872;2023-12-14T03:56:30;28.43;;;24.33;;
8572;SDS011;4324;42.012;24.872;2023-12-14T03:58:57;22.17;;;15.83;;
8572;SDS011;4324;42.012;24.872;2023-12-14T04:01:24;25.77;;;18.80;;
8572;SDS011;4324;42.012;24.872;2023-12-14T04:03:51;23.33;;;18.10;;
8572;SDS011;4324;42.012;24.872;2023-12-14T04:06:20;26.47;;;19.90;;
8572;SDS011;4324;42.012;24.872;2023-12-14T04:08:47;31.60;;;18.33;;
8572;SDS011;4324;42.012;24.872;2023-12-14T04:11:14;26.93;;;18.50;;
8572;SDS011;4324;42.012;24.872;2023-12-14T04:13:41;26.20;;;20.67;;
8572;SDS011;4324;42.012;24.872;2023-12-14T04:16:08;23.57;;;18.07;;
8572;SDS011;4324;42.012;24.872;2023-12-14T04:18:38;29.27;;;20.27;;
8572;SDS011;4324;42.012;24.872;2023-12-14T04:21:06;27.30;;;19.27;;
8572;SDS011;4324;42.012;24.872;2023-12-14T04:23:34;29.57;;;20.07;;
8572;SDS011;4324;42.012;24.872;2023-12-14T04:26:04;27.97;;;19.93;;
8572;SDS011;4324;42.012;24.872;2023-12-14T04:28:32;25.60;;;19.83;;
8572;SDS011;4324;42.012;24.872;2023-12-14T04:30:59;28.67;;;19.87;;
8572;SDS011;4324;42.012;24.872;2023-12-14T04:33:27;26.20;;;18.53;;
8572;SDS011;4324;42.012;24.872;2023-12-14T04:35:54;29.13;;;20.47;;
8572;SDS011;4324;42.012;24.872;2023-12-14T04:38:21;31.70;;;21.73;;
8572;SDS011;4324;42.012;24.872;2023-12-14T04:40:49;34.90;;;24.13;;
8572;SDS011;4324;42.012;24.872;2023-12-14T04:43:18;33.63;;;22.63;;
8572;SDS011;4324;42.012;24.872;2023-12-14T04:45:58;33.83;;;21.30;;
8572;SDS011;4324;42.012;24.872;2023-12-14T04:48:31;29.80;;;22.13;;
8572;SDS011;4324;42.012;24.872;2023-12-14T04:50:58;35.43;;;26.13;;
8572;SDS011;4324;42.012;24.872;2023-12-14T04:53:28;47.00;;;31.80;;
8572;SDS011;4324;42.012;24.872;2023-12-14T04:55:56;44.07;;;28.30;;
8572;SDS011;4324;42.012;24.872;2023-12-14T04:58:23;37.60;;;25.97;;
8572;SDS011;4324;42.012;24.872;2023-12-14T05:00:51;34.40;;;24.80;;
8572;SDS011;4324;42.012;24.872;2023-12-14T05:03:18;36.47;;;25.13;;
8572;SDS011;4324;42.012;24.872;2023-12-14T05:05:45;38.20;;;26.17;;
8572;SDS011;4324;42.012;24.872;2023-12-14T05:08:12;35.70;;;25.83;;
8572;SDS011;4324;42.012;24.872;2023-12-14T05:10:42;37.43;;;25.97;;
8572;SDS011;4324;42.012;24.872;2023-12-14T05:13:11;31.63;;;23.87;;
8572;SDS011;4324;42.012;24.872;2023-12-14T05:15:38;32.37;;;24.90;;
8572;SDS011;4324;42.012;24.872;2023-12-14T05:18:11;35.07;;;25.47;;
8572;SDS011;4324;42.012;24.872;2023-12-14T05:20:41;36.67;;;25.43;;
8572;SDS011;4324;42.012;24.872;2023-12-14T05:23:29;35.67;;;24.73;;
8572;SDS011;4324;42.012;24.872;2023-12-14T05:25:56;35.40;;;25.50;;
8572;SDS011;4324;42.012;24.872;2023-12-14T05:28:25;36.73;;;25.77;;
8572;SDS011;4324;42.012;24.872;2023-12-14T05:30:52;38.97;;;27.67;;
8572;SDS011;4324;42.012;24.872;2023-12-14T05:33:19;38.07;;;26.57;;
8572;SDS011;4324;42.012;24.872;2023-12-14T05:35:46;40.03;;;26.60;;
8572;SDS011;4324;42.012;24.872;2023-12-14T05:38:13;41.63;;;30.63;;
8572;SDS011;4324;42.012;24.872;2023-12-14T05:40:40;40.67;;;30.57;;
8572;SDS011;4324;42.012;24.872;2023-12-14T05:43:14;44.50;;;31.40;;
8572;SDS011;4324;42.012;24.872;2023-12-14T05:45:42;44.03;;;32.83;;
8572;SDS011;4324;42.012;24.872;2023-12-14T05:48:09;48.37;;;33.87;;
8572;SDS011;4324;42.012;24.872;2023-12-14T05:50:37;44.53;;;33.97;;
8572;SDS011;4324;42.012;24.872;2023-12-14T05:53:07;46.17;;;31.53;;
8572;SDS011;4324;42.012;24.872;2023-12-14T05:55:34;51.97;;;35.90;;
8572;SDS011;4324;42.012;24.872;2023-12-14T05:58:20;41.40;;;32.97;;
8572;SDS011;4324;42.012;24.872;2023-12-14T06:00:59;44.67;;;33.30;;
8572;SDS011;4324;42.012;24.872;2023-12-14T06:03:29;49.63;;;33.60;;
8572;SDS011;4324;42.012;24.872;2023-12-14T06:05:57;55.43;;;39.17;;
8572;SDS011;4324;42.012;24.872;2023-12-14T06:08:27;51.43;;;36.60;;
8572;SDS011;4324;42.012;24.872;2023-12-14T06:11:17;45.60;;;33.97;;
8572;SDS011;4324;42.012;24.872;2023-12-14T06:14:05;47.13;;;35.87;;
8572;SDS011;4324;42.012;24.872;2023-12-14T06:16:47;46.67;;;34.17;;
8572;SDS011;4324;42.012;24.872;2023-12-14T06:19:49;43.43;;;32.13;;
8572;SDS011;4324;42.012;24.872;2023-12-14T06:22:21;43.83;;;32.93;;
8572;SDS011;4324;42.012;24.872;2023-12-14T06:24:48;38.40;;;27.23;;
8572;SDS011;4324;42.012;24.872;2023-12-14T06:27:15;34.80;;;27.00;;
8572;SDS011;4324;42.012;24.872;2023-12-14T06:29:43;36.40;;;26.07;;
8572;SDS011;4324;42.012;24.872;2023-12-14T06:32:14;43.23;;;29.40;;
8572;SDS011;4324;42.012;24.872;2023-12-14T06:34:41;31.63;;;23.77;;
8572;SDS011;4324;42.012;24.872;2023-12-14T06:37:08;30.10;;;22.07;;
8572;SDS011;4324;42.012;24.872;2023-12-14T06:39:36;30.33;;;21.30;;
8572;SDS011;4324;42.012;24.872;2023-12-14T06:42:03;38.13;;;27.83;;
8572;SDS011;4324;42.012;24.872;2023-12-14T06:44:33;49.33;;;34.90;;
8572;SDS011;4324;42.012;24.872;2023-12-14T06:47:04;60.70;;;38.70;;
8572;SDS011;4324;42.012;24.872;2023-12-14T06:49:33;49.00;;;34.90;;
8572;SDS011;4324;42.012;24.872;2023-12-14T06:52:04;47.63;;;34.13;;
8572;SDS011;4324;42.012;24.872;2023-12-14T06:54:32;38.43;;;29.13;;
8572;SDS011;4324;42.012;24.872;2023-12-14T06:57:02;34.03;;;24.63;;
8572;SDS011;4324;42.012;24.872;2023-12-14T06:59:29;36.13;;;26.57;;
8572;SDS011;4324;42.012;24.872;2023-12-14T07:01:56;35.83;;;24.20;;
8572;SDS011;4324;42.012;24.872;2023-12-14T07:04:26;31.80;;;24.50;;
8572;SDS011;4324;42.012;24.872;2023-12-14T07:06:56;30.37;;;20.93;;
8572;SDS011;4324;42.012;24.872;2023-12-14T07:09:25;31.47;;;22.83;;
8572;SDS011;4324;42.012;24.872;2023-12-14T07:11:59;30.50;;;22.90;;
8572;SDS011;4324;42.012;24.872;2023-12-14T07:14:29;30.10;;;22.80;;
8572;SDS011;4324;42.012;24.872;2023-12-14T07:16:57;33.20;;;24.40;;
8572;SDS011;4324;42.012;24.872;2023-12-14T07:19:26;30.70;;;22.23;;
8572;SDS011;4324;42.012;24.872;2023-12-14T07:21:54;35.50;;;24.80;;
8572;SDS011;4324;42.012;24.872;2023-12-14T07:24:22;29.07;;;22.60;;
8572;SDS011;4324;42.012;24.872;2023-12-14T07:26:49;36.63;;;24.93;;
8572;SDS011;4324;42.012;24.872;2023-12-14T07:29:16;37.77;;;27.10;;
8572;SDS011;4324;42.012;24.872;2023-12-14T07:31:44;61.43;;;41.30;;
8572;SDS011;4324;42.012;24.872;2023-12-14T07:34:11;45.13;;;30.50;;
8572;SDS011;4324;42.012;24.872;2023-12-14T07:36:44;71.77;;;49.70;;
8572;SDS011;4324;42.012;24.872;2023-12-14T07:39:13;43.77;;;29.97;;
8572;SDS011;4324;42.012;24.872;2023-12-14T07:41:41;42.03;;;28.83;;
8572;SDS011;4324;42.012;24.872;2023-12-14T07:44:08;38.80;;;27.50;;
8572;SDS011;4324;42.012;24.872;2023-12-14T07:46:35;34.37;;;26.93;;
8572;SDS011;4324;42.012;24.872;2023-12-14T07:49:06;42.13;;;29.03;;
8572;SDS011;4324;42.012;24.872;2023-12-14T07:51:33;49.00;;;37.37;;
8572;SDS011;4324;42.012;24.872;2023-12-14T07:54:00;84.00;;;66.03;;
8572;SDS011;4324;42.012;24.872;2023-12-14T07:56:29;81.17;;;58.90;;
8572;SDS011;4324;42.012;24.872;2023-12-14T07:58:59;70.53;;;54.20;;
8572;SDS011;4324;42.012;24.872;2023-12-14T08:01:32;53.83;;;41.30;;
8572;SDS011;4324;42.012;24.872;2023-12-14T08:04:00;52.67;;;39.87;;
8572;SDS011;4324;42.012;24.872;2023-12-14T08:06:48;51.07;;;39.53;;
8572;SDS011;4324;42.012;24.872;2023-12-14T08:09:25;54.53;;;40.00;;
8572;SDS011;4324;42.012;24.872;2023-12-14T08:12:09;49.70;;;38.63;;
8572;SDS011;4324;42.012;24.872;2023-12-14T08:14:49;58.10;;;42.00;;
8572;SDS011;4324;42.012;24.872;2023-12-14T08:17:22;55.67;;;41.67;;
8572;SDS011;4324;42.012;24.872;2023-12-14T08:19:55;63.67;;;43.23;;
8572;SDS011;4324;42.012;24.872;2023-12-14T08:22:49;63.10;;;43.27;;
8572;SDS011;4324;42.012;24.872;2023-12-14T08:25:17;54.30;;;38.13;;
8572;SDS011;4324;42.012;24.872;2023-12-14T08:27:44;48.80;;;37.03;;
8572;SDS011;4324;42.012;24.872;2023-12-14T08:30:13;44.73;;;34.73;;
8572;SDS011;4324;42.012;24.872;2023-12-14T08:32:41;54.40;;;35.97;;
8572;SDS011;4324;42.012;24.872;2023-12-14T08:35:08;46.03;;;32.27;;
8572;SDS011;4324;42.012;24.872;2023-12-14T08:37:36;46.53;;;34.10;;
8572;SDS011;4324;42.012;24.872;2023-12-14T08:40:03;47.17;;;33.43;;
8572;SDS011;4324;42.012;24.872;2023-12-14T08:42:32;43.60;;;33.37;;
8572;SDS011;4324;42.012;24.872;2023-12-14T08:45:01;43.83;;;32.43;;
8572;SDS011;4324;42.012;24.872;2023-12-14T08:47:48;45.00;;;32.77;;
8572;SDS011;4324;42.012;24.872;2023-12-14T08:50:16;41.50;;;29.80;;
8572;SDS011;4324;42.012;24.872;2023-12-14T08:52:43;40.93;;;29.40;;
8572;SDS011;4324;42.012;24.872;2023-12-14T08:55:19;40.50;;;30.53;;
8572;SDS011;4324;42.012;24.872;2023-12-14T08:57:47;41.97;;;31.87;;
8572;SDS011;4324;42.012;24.872;2023-12-14T09:00:14;42.43;;;32.37;;
8572;SDS011;4324;42.012;24.872;2023-12-14T09:02:42;43.43;;;32.07;;
8572;SDS011;4324;42.012;24.872;2023-12-14T09:05:13;36.40;;;29.07;;
8572;SDS011;4324;42.012;24.872;2023-12-14T09:07:41;36.40;;;28.33;;
8572;SDS011;4324;42.012;24.872;2023-12-14T09:10:09;39.23;;;29.37;;
8572;SDS011;4324;42.012;24.872;2023-12-14T09:13:02;38.77;;;28.57;;
8572;SDS011;4324;42.012;24.872;2023-12-14T09:15:32;34.37;;;27.23;;
8572;SDS011;4324;42.012;24.872;2023-12-14T09:18:00;32.67;;;23.93;;
8572;SDS011;4324;42.012;24.872;2023-12-14T09:20:29;28.30;;;23.50;;
8572;SDS011;4324;42.012;24.872;2023-12-14T09:22:56;33.30;;;23.30;;
8572;SDS011;4324;42.012;24.872;2023-12-14T09:25:23;36.77;;;29.73;;
8572;SDS011;4324;42.012;24.872;2023-12-14T09:27:50;30.40;;;22.00;;
8572;SDS011;4324;42.012;24.872;2023-12-14T09:30:21;29.03;;;23.23;;
8572;SDS011;4324;42.012;24.872;2023-12-14T09:33:00;31.23;;;22.50;;
8572;SDS011;4324;42.012;24.872;2023-12-14T09:35:29;33.20;;;24.43;;
8572;SDS011;4324;42.012;24.872;2023-12-14T09:37:56;32.53;;;23.80;;
8572;SDS011;4324;42.012;24.872;2023-12-14T09:40:23;33.97;;;26.00;;
8572;SDS011;4324;42.012;24.872;2023-12-14T09:42:50;36.17;;;25.87;;
8572;SDS011;4324;42.012;24.872;2023-12-14T09:45:22;38.10;;;29.00;;
8572;SDS011;4324;42.012;24.872;2023-12-14T09:47:53;36.57;;;26.93;;
8572;SDS011;4324;42.012;24.872;2023-12-14T09:50:20;39.80;;;28.93;;
8572;SDS011;4324;42.012;24.872;2023-12-14T09:52:50;47.83;;;33.17;;
8572;SDS011;4324;42.012;24.872;2023-12-14T09:55:18;37.67;;;29.10;;
8572;SDS011;4324;42.012;24.872;2023-12-14T09:57:49;38.33;;;29.77;;
8572;SDS011;4324;42.012;24.872;2023-12-14T10:00:31;36.53;;;28.57;;
8572;SDS011;4324;42.012;24.872;2023-12-14T10:03:09;36.30;;;27.37;;
8572;SDS011;4324;42.012;24.872;2023-12-14T10:05:44;42.27;;;31.97;;
8572;SDS011;4324;42.012;24.872;2023-12-14T10:08:13;40.00;;;30.00;;
8572;SDS011;4324;42.012;24.872;2023-12-14T10:10:44;36.60;;;27.23;;
8572;SDS011;4324;42.012;24.872;2023-12-14T10:13:35;41.70;;;29.60;;
8572;SDS011;4324;42.012;24.872;2023-12-14T10:16:08;39.03;;;30.30;;
8572;SDS011;4324;42.012;24.872;2023-12-14T10:18:55;39.93;;;29.07;;
8572;SDS011;4324;42.012;24.872;2023-12-14T10:21:28;39.03;;;29.30;;
8572;SDS011;4324;42.012;24.872;2023-12-14T10:23:59;42.07;;;30.57;;
8572;SDS011;4324;42.012;24.872;2023-12-14T10:26:26;45.97;;;32.13;;
8572;SDS011;4324;42.012;24.872;2023-12-14T10:29:01;42.67;;;31.13;;
8572;SDS011;4324;42.012;24.872;2023-12-14T10:31:30;35.00;;;28.30;;
8572;SDS011;4324;42.012;24.872;2023-12-14T10:33:57;38.23;;;29.10;;
8572;SDS011;4324;42.012;24.872;2023-12-14T10:36:25;33.93;;;25.13;;
8572;SDS011;4324;42.012;24.872;2023-12-14T10:38:53;31.63;;;24.57;;
8572;SDS011;4324;42.012;24.872;2023-12-14T10:41:24;34.13;;;25.50;;
8572;SDS011;4324;42.012;24.872;2023-12-14T10:43:57;29.70;;;22.80;;
8572;SDS011;4324;42.012;24.872;2023-12-14T10:46:36;31.17;;;24.40;;
8572;SDS011;4324;42.012;24.872;2023-12-14T10:49:13;33.27;;;25.07;;
8572;SDS011;4324;42.012;24.872;2023-12-14T10:51:48;31.77;;;25.13;;
8572;SDS011;4324;42.012;24.872;2023-12-14T10:54:16;32.57;;;24.63;;
8572;SDS011;4324;42.012;24.872;2023-12-14T10:56:48;33.77;;;24.53;;
8572;SDS011;4324;42.012;24.872;2023-12-14T10:59:16;31.20;;;24.70;;
8572;SDS011;4324;42.012;24.872;2023-12-14T11:01:43;35.13;;;28.67;;
8572;SDS011;4324;42.012;24.872;2023-12-14T11:04:11;56.57;;;43.63;;
8572;SDS011;4324;42.012;24.872;2023-12-14T11:06:40;34.67;;;26.80;;
8572;SDS011;4324;42.012;24.872;2023-12-14T11:09:14;33.27;;;25.73;;
8572;SDS011;4324;42.012;24.872;2023-12-14T11:11:55;35.73;;;24.10;;
8572;SDS011;4324;42.012;24.872;2023-12-14T11:14:25;29.30;;;22.63;;
8572;SDS011;4324;42.012;24.872;2023-12-14T11:16:54;25.93;;;21.60;;
8572;SDS011;4324;42.012;24.872;2023-12-14T11:19:25;26.80;;;20.20;;
8572;SDS011;4324;42.012;24.872;2023-12-14T11:22:22;26.80;;;21.57;;
8572;SDS011;4324;42.012;24.872;2023-12-14T11:24:53;26.83;;;21.20;;
8572;SDS011;4324;42.012;24.872;2023-12-14T11:27:29;23.47;;;18.93;;
8572;SDS011;4324;42.012;24.872;2023-12-14T11:29:59;24.03;;;19.07;;
8572;SDS011;4324;42.012;24.872;2023-12-14T11:32:28;27.00;;;19.97;;
8572;SDS011;4324;42.012;24.872;2023-12-14T11:34:56;25.60;;;20.57;;
8572;SDS011;4324;42.012;24.872;2023-12-14T11:37:37;26.23;;;22.10;;
8572;SDS011;4324;42.012;24.872;2023-12-14T11:40:15;35.17;;;24.97;;
8572;SDS011;4324;42.012;24.872;2023-12-14T11:43:01;35.60;;;22.80;;
8572;SDS011;4324;42.012;24.872;2023-12-14T11:45:39;25.23;;;20.97;;
8572;SDS011;4324;42.012;24.872;2023-12-14T11:48:12;27.73;;;22.37;;
8572;SDS011;4324;42.012;24.872;2023-12-14T11:50:40;28.17;;;24.13;;
8572;SDS011;4324;42.012;24.872;2023-12-14T11:53:08;30.73;;;23.50;;
8572;SDS011;4324;42.012;24.872;2023-12-14T11:55:36;30.97;;;24.77;;
8572;SDS011;4324;42.012;24.872;2023-12-14T11:58:15;37.57;;;28.37;;
8572;SDS011;4324;42.012;24.872;2023-12-14T12:00:48;35.47;;;27.27;;
8572;SDS011;4324;42.012;24.872;2023-12-14T12:03:15;31.27;;;26.80;;
8572;SDS011;4324;42.012;24.872;2023-12-14T12:05:46;34.70;;;27.43;;
8572;SDS011;4324;42.012;24.872;2023-12-14T12:08:17;31.20;;;26.67;;
8572;SDS011;4324;42.012;24.872;2023-12-14T12:10:47;34.60;;;27.43;;
8572;SDS011;4324;42.012;24.872;2023-12-14T12:13:17;34.90;;;27.33;;
8572;SDS011;4324;42.012;24.872;2023-12-14T12:15:46;31.53;;;25.17;;
8572;SDS011;4324;42.012;24.872;2023-12-14T12:18:24;33.83;;;27.53;;
8572;SDS011;4324;42.012;24.872;2023-12-14T12:20:51;31.67;;;23.63;;
8572;SDS011;4324;42.012;24.872;2023-12-14T12:23:25;31.40;;;21.57;;
8572;SDS011;4324;42.012;24.872;2023-12-14T12:26:00;23.43;;;19.87;;
8572;SDS011;4324;42.012;24.872;2023-12-14T12:28:29;26.73;;;20.27;;
8572;SDS011;4324;42.012;24.872;2023-12-14T12:30:57;27.57;;;21.77;;
8572;SDS011;4324;42.012;24.872;2023-12-14T12:33:33;27.67;;;21.37;;
8572;SDS011;4324;42.012;24.872;2023-12-14T12:36:03;28.73;;;22.00;;
8572;SDS011;4324;42.012;24.872;2023-12-14T12:38:37;32.80;;;24.47;;
8572;SDS011;4324;42.012;24.872;2023-12-14T12:41:07;29.47;;;23.87;;
8572;SDS011;4324;42.012;24.872;2023-12-14T12:43:35;30.93;;;24.33;;
8572;SDS011;4324;42.012;24.872;2023-12-14T12:46:02;33.17;;;24.93;;
8572;SDS011;4324;42.012;24.872;2023-12-14T12:48:30;27.43;;;21.53;;
8572;SDS011;4324;42.012;24.872;2023-12-14T12:50:57;28.10;;;21.53;;
8572;SDS011;4324;42.012;24.872;2023-12-14T12:53:24;26.50;;;20.77;;
8572;SDS011;4324;42.012;24.872;2023-12-14T12:55:52;30.00;;;22.67;;
8572;SDS011;4324;42.012;24.872;2023-12-14T12:58:19;27.53;;;22.23;;
8572;SDS011;4324;42.012;24.872;2023-12-14T13:00:48;32.23;;;24.00;;
8572;SDS011;4324;42.012;24.872;2023-12-14T13:03:15;33.03;;;22.90;;
8572;SDS011;4324;42.012;24.872;2023-12-14T13:05:45;34.20;;;26.07;;
8572;SDS011;4324;42.012;24.872;2023-12-14T13:08:13;27.63;;;22.57;;
8572;SDS011;4324;42.012;24.872;2023-12-14T13:10:40;35.03;;;23.20;;
8572;SDS011;4324;42.012;24.872;2023-12-14T13:13:07;30.27;;;24.30;;
8572;SDS011;4324;42.012;24.872;2023-12-14T13:15:34;29.03;;;23.67;;
8572;SDS011;4324;42.012;24.872;2023-12-14T13:18:05;28.77;;;23.40;;
8572;SDS011;4324;42.012;24.872;2023-12-14T13:20:32;38.60;;;25.47;;
8572;SDS011;4324;42.012;24.872;2023-12-14T13:22:59;29.87;;;24.20;;
8572;SDS011;4324;42.012;24.872;2023-12-14T13:25:29;29.97;;;22.73;;
8572;SDS011;4324;42.012;24.872;2023-12-14T13:28:11;32.27;;;24.00;;
8572;SDS011;4324;42.012;24.872;2023-12-14T13:30:44;28.13;;;22.20;;
8572;SDS011;4324;42.012;24.872;2023-12-14T13:33:13;28.33;;;22.07;;
8572;SDS011;4324;42.012;24.872;2023-12-14T13:35:40;32.07;;;23.40;;
8572;SDS011;4324;42.012;24.872;2023-12-14T13:38:09;28.37;;;21.03;;
8572;SDS011;4324;42.012;24.872;2023-12-14T13:40:36;31.87;;;22.87;;
8572;SDS011;4324;42.012;24.872;2023-12-14T13:43:13;32.17;;;25.13;;
8572;SDS011;4324;42.012;24.872;2023-12-14T13:45:41;31.30;;;25.17;;
8572;SDS011;4324;42.012;24.872;2023-12-14T13:48:17;33.80;;;24.57;;
8572;SDS011;4324;42.012;24.872;2023-12-14T13:50:47;33.17;;;26.07;;
8572;SDS011;4324;42.012;24.872;2023-12-14T13:53:22;39.17;;;26.87;;
8572;SDS011;4324;42.012;24.872;2023-12-14T13:55:49;35.37;;;26.27;;
8572;SDS011;4324;42.012;24.872;2023-12-14T13:58:17;44.20;;;31.70;;
8572;SDS011;4324;42.012;24.872;2023-12-14T14:00:44;37.43;;;28.63;;
8572;SDS011;4324;42.012;24.872;2023-12-14T14:03:12;35.17;;;25.87;;
8572;SDS011;4324;42.012;24.872;2023-12-14T14:05:41;36.43;;;26.43;;
8572;SDS011;4324;42.012;24.872;2023-12-14T14:08:09;32.87;;;25.90;;
8572;SDS011;4324;42.012;24.872;2023-12-14T14:10:37;37.27;;;28.13;;
8572;SDS011;4324;42.012;24.872;2023-12-14T14:13:04;32.40;;;25.33;;
8572;SDS011;4324;42.012;24.872;2023-12-14T14:15:32;39.40;;;28.03;;
8572;SDS011;4324;42.012;24.872;2023-12-14T14:17:59;35.30;;;25.17;;
8572;SDS011;4324;42.012;24.872;2023-12-14T14:20:28;34.63;;;25.00;;
8572;SDS011;4324;42.012;24.872;2023-12-14T14:22:56;37.60;;;25.70;;
8572;SDS011;4324;42.012;24.872;2023-12-14T14:25:25;48.40;;;35.83;;
8572;SDS011;4324;42.012;24.872;2023-12-14T14:27:52;53.83;;;40.70;;
8572;SDS011;4324;42.012;24.872;2023-12-14T14:30:19;57.80;;;40.70;;
8572;SDS011;4324;42.012;24.872;2023-12-14T14:32:46;54.20;;;39.20;;
8572;SDS011;4324;42.012;24.872;2023-12-14T14:35:14;61.73;;;44.97;;
8572;SDS011;4324;42.012;24.872;2023-12-14T14:37:41;53.67;;;40.73;;
8572;SDS011;4324;42.012;24.872;2023-12-14T14:40:12;57.17;;;39.23;;
8572;SDS011;4324;42.012;24.872;2023-12-14T14:42:43;57.53;;;39.80;;
8572;SDS011;4324;42.012;24.872;2023-12-14T14:45:10;70.87;;;49.07;;
8572;SDS011;4324;42.012;24.872;2023-12-14T14:47:39;78.43;;;59.20;;
8572;SDS011;4324;42.012;24.872;2023-12-14T14:50:07;63.57;;;47.17;;
8572;SDS011;4324;42.012;24.872;2023-12-14T14:52:35;66.70;;;48.43;;